Time;durP1;ratioP1;P1;durP2;ratioP2;P2;SDS_P1;SDS_P2;PMS_P1;PMS_P2;Temp;Humidity;BMP_temperature;BMP_pressure;BME280_temperature;BME280_humidity;BME280_pressure;Samples;Min_cycle;Max_cycle;Signal;HPM_P1;HPM_P2
2024/01/05 00:01:54;;;;;;;7.50;3.03;;;11.30;96.70;;;;;;5017954;28;20084;-73
2024/01/05 00:04:26;;;;;;;7.45;2.88;;;11.30;96.70;;;;;;5006134;28;20085;-74
2024/01/05 00:07:09;;;;;;;7.88;2.90;;;11.20;96.70;;;;;;5036405;28;20050;-74
2024/01/05 00:09:49;;;;;;;9.20;2.97;;;11.30;96.70;;;;;;5041430;28;20037;-74
2024/01/05 00:12:18;;;;;;;8.40;2.80;;;11.30;96.70;;;;;;5040926;28;20060;-73
2024/01/05 00:14:49;;;;;;;7.78;2.67;;;11.30;96.70;;;;;;5040132;28;20047;-73
2024/01/05 00:17:41;;;;;;;7.97;2.78;;;11.30;96.70;;;;;;5027240;28;20060;-74
2024/01/05 00:20:12;;;;;;;9.88;3.00;;;11.20;96.70;;;;;;5057366;28;20413;-73
2024/01/05 00:22:57;;;;;;;7.65;2.50;;;11.20;96.70;;;;;;5023418;28;20049;-73
2024/01/05 00:29:04;;;;;;;7.68;2.67;;;11.20;96.70;;;;;;5037547;28;20602;-74
2024/01/05 00:35:48;;;;;;;8.82;2.80;;;11.20;96.70;;;;;;5035277;28;20071;-74
2024/01/05 00:38:19;;;;;;;8.68;3.13;;;11.30;96.70;;;;;;5037232;28;20045;-74
2024/01/05 00:40:49;;;;;;;7.63;3.20;;;11.30;96.70;;;;;;5039062;28;20437;-73
2024/01/05 00:43:21;;;;;;;9.05;2.80;;;11.20;96.70;;;;;;5038634;28;20498;-74
2024/01/05 00:45:50;;;;;;;7.40;3.10;;;11.20;96.70;;;;;;5040600;28;20049;-74
2024/01/05 00:49:09;;;;;;;5.95;2.78;;;11.30;96.70;;;;;;5034667;28;20048;-74
2024/01/05 00:52:17;;;;;;;10.48;2.90;;;11.30;96.70;;;;;;5025681;28;20052;-74
2024/01/05 00:54:48;;;;;;;8.98;3.28;;;11.30;96.70;;;;;;5018186;28;20052;-74
2024/01/05 00:57:23;;;;;;;8.85;3.50;;;11.30;96.70;;;;;;5039477;28;20076;-74
2024/01/05 00:59:53;;;;;;;11.93;3.35;;;11.30;96.70;;;;;;5037860;28;20072;-73
2024/01/05 01:02:22;;;;;;;9.88;2.95;;;11.30;96.70;;;;;;5039825;28;20136;-74
2024/01/05 01:04:53;;;;;;;8.32;2.85;;;11.30;96.70;;;;;;5023421;28;20164;-74
2024/01/05 01:07:26;;;;;;;7.88;2.75;;;11.30;96.70;;;;;;5035110;28;20057;-74
2024/01/05 01:14:03;;;;;;;7.88;3.33;;;11.30;96.70;;;;;;5005590;28;20060;-74
2024/01/05 01:16:39;;;;;;;6.15;2.67;;;11.30;96.70;;;;;;4999749;28;20295;-74
2024/01/05 01:19:10;;;;;;;8.73;3.40;;;11.40;96.70;;;;;;5020904;28;20400;-74
2024/01/05 01:21:41;;;;;;;7.20;3.10;;;11.30;96.70;;;;;;5024079;28;20057;-74
2024/01/05 01:24:25;;;;;;;10.52;2.83;;;11.30;96.70;;;;;;5023858;28;20053;-74
2024/01/05 01:26:57;;;;;;;7.55;2.67;;;11.20;96.70;;;;;;5016904;28;20055;-74
2024/01/05 01:29:27;;;;;;;7.82;3.47;;;11.20;96.70;;;;;;5026165;28;20164;-74
2024/01/05 01:31:56;;;;;;;8.77;2.90;;;11.10;96.70;;;;;;5022209;28;20053;-74
2024/01/05 01:34:28;;;;;;;11.00;2.88;;;11.10;96.70;;;;;;5019303;28;20076;-74
2024/01/05 01:36:59;;;;;;;7.65;2.75;;;11.10;96.70;;;;;;5023968;28;20054;-74
2024/01/05 01:39:27;;;;;;;8.38;3.10;;;11.00;96.70;;;;;;5010052;28;20167;-74
2024/01/05 01:41:58;;;;;;;10.45;3.25;;;11.00;96.70;;;;;;5010321;28;20171;-74
2024/01/05 01:44:27;;;;;;;7.20;3.15;;;10.90;96.70;;;;;;5009735;28;20058;-74
2024/01/05 01:46:58;;;;;;;8.88;3.17;;;10.90;96.70;;;;;;5009169;28;20188;-75
2024/01/05 01:49:36;;;;;;;7.80;3.08;;;10.90;96.70;;;;;;5006972;28;20049;-74
2024/01/05 01:52:08;;;;;;;8.67;3.30;;;10.90;96.70;;;;;;5025873;28;20055;-74
2024/01/05 01:54:37;;;;;;;8.15;2.83;;;10.80;96.70;;;;;;5024746;28;20191;-74
2024/01/05 01:57:07;;;;;;;6.63;3.15;;;10.80;96.70;;;;;;5012035;28;20057;-74
2024/01/05 01:59:39;;;;;;;9.98;3.33;;;10.80;96.70;;;;;;5024878;28;20412;-74
2024/01/05 02:02:09;;;;;;;7.07;2.92;;;10.80;96.70;;;;;;5005406;28;20057;-75
2024/01/05 02:04:39;;;;;;;9.52;3.33;;;10.70;96.70;;;;;;5025023;28;20054;-74
2024/01/05 02:07:16;;;;;;;8.50;3.08;;;10.80;96.70;;;;;;5005720;28;20060;-74
2024/01/05 02:09:45;;;;;;;8.80;3.30;;;10.80;96.70;;;;;;5025992;28;20178;-74
2024/01/05 02:12:14;;;;;;;9.30;3.72;;;10.70;96.70;;;;;;5025865;28;20065;-74
2024/01/05 02:14:44;;;;;;;7.30;3.05;;;10.70;96.70;;;;;;5024413;28;20049;-74
2024/01/05 02:17:32;;;;;;;8.20;3.15;;;10.70;96.70;;;;;;5024905;28;20129;-74
2024/01/05 02:20:02;;;;;;;9.35;3.38;;;10.60;96.70;;;;;;5025013;28;20053;-74
2024/01/05 02:22:35;;;;;;;9.10;3.85;;;10.50;96.70;;;;;;5024034;28;20053;-74
2024/01/05 02:25:05;;;;;;;13.07;4.65;;;10.60;96.70;;;;;;5025881;28;20049;-74
2024/01/05 02:28:43;;;;;;;9.38;3.15;;;10.60;96.70;;;;;;5006759;28;20061;-74
2024/01/05 02:31:25;;;;;;;11.63;3.22;;;10.60;96.70;;;;;;5004022;28;20061;-74
2024/01/05 02:33:53;;;;;;;7.30;2.60;;;10.60;96.70;;;;;;5020500;28;20129;-74
2024/01/05 02:36:22;;;;;;;6.55;2.58;;;10.60;96.70;;;;;;5000837;28;20045;-74
2024/01/05 02:38:52;;;;;;;6.57;2.17;;;10.60;96.70;;;;;;5024215;28;20045;-74
2024/01/05 02:41:22;;;;;;;6.22;2.08;;;10.50;96.70;;;;;;5008681;28;20176;-74
2024/01/05 02:43:51;;;;;;;5.75;2.38;;;10.50;96.70;;;;;;5025203;28;20076;-74
2024/01/05 02:46:20;;;;;;;8.15;2.85;;;10.50;96.70;;;;;;5022293;28;20045;-74
2024/01/05 02:48:57;;;;;;;6.63;3.00;;;10.50;96.70;;;;;;5024721;28;20541;-74
2024/01/05 02:51:26;;;;;;;10.73;2.63;;;10.40;96.70;;;;;;5040471;28;20171;-74
2024/01/05 02:53:55;;;;;;;7.07;2.00;;;10.40;96.70;;;;;;5007349;28;20107;-74
2024/01/05 02:56:28;;;;;;;8.93;2.63;;;10.50;96.70;;;;;;5023809;28;20627;-74
2024/01/05 02:58:57;;;;;;;8.65;2.22;;;10.40;96.70;;;;;;5008458;28;20060;-74
2024/01/05 03:01:28;;;;;;;7.63;2.60;;;10.40;96.70;;;;;;5024290;28;20137;-74
2024/01/05 03:04:42;;;;;;;7.20;1.90;;;10.40;96.70;;;;;;5003128;28;20107;-74
2024/01/05 03:06:53;;;;;;;9.23;2.40;;;10.30;96.70;;;;;;5016078;28;20061;-74
2024/01/05 03:09:21;;;;;;;6.50;2.28;;;10.30;96.70;;;;;;5002629;28;20526;-74
2024/01/05 03:11:51;;;;;;;5.63;2.00;;;10.20;96.70;;;;;;5008092;28;20119;-74
2024/01/05 03:14:20;;;;;;;6.65;2.30;;;10.20;96.70;;;;;;5019965;28;21012;-74
2024/01/05 03:16:48;;;;;;;7.80;1.88;;;10.20;96.70;;;;;;5024413;28;20041;-74
2024/01/05 03:19:17;;;;;;;7.05;2.25;;;10.20;96.70;;;;;;5024488;28;20124;-74
2024/01/05 03:21:54;;;;;;;5.70;2.13;;;10.20;96.70;;;;;;5008789;28;20053;-74
2024/01/05 03:24:32;;;;;;;9.85;2.35;;;10.10;96.70;;;;;;5003328;28;20061;-74
2024/01/05 03:27:04;;;;;;;9.63;2.55;;;10.10;96.70;;;;;;5022201;28;20661;-74
2024/01/05 03:32:49;;;;;;;8.07;2.70;;;10.10;96.70;;;;;;5015825;28;20045;-74
2024/01/05 03:35:18;;;;;;;6.22;2.58;;;10.00;96.70;;;;;;5004838;28;20048;-74
2024/01/05 03:37:46;;;;;;;9.30;3.03;;;10.10;96.70;;;;;;5023902;28;20084;-74
2024/01/05 03:40:18;;;;;;;8.90;3.10;;;10.10;96.70;;;;;;5023146;28;20053;-74
2024/01/05 03:42:56;;;;;;;;;;;10.00;96.70;;;;;;5020830;28;20069;-74
2024/01/05 03:45:24;;;;;;;7.00;2.65;;;10.00;96.70;;;;;;5005624;28;20378;-74
2024/01/05 03:47:57;;;;;;;8.23;2.50;;;10.10;96.70;;;;;;5023900;28;20045;-74
2024/01/05 03:50:25;;;;;;;7.50;2.78;;;10.00;96.70;;;;;;5051647;28;20586;-74
2024/01/05 03:52:53;;;;;;;9.07;2.67;;;10.00;96.70;;;;;;5007293;28;20671;-74
2024/01/05 03:55:22;;;;;;;7.80;2.30;;;10.00;96.70;;;;;;5005388;28;20052;-74
2024/01/05 03:57:50;;;;;;;5.32;2.47;;;9.90;96.70;;;;;;5025027;28;20600;-74
2024/01/05 04:00:21;;;;;;;7.50;2.60;;;10.00;96.70;;;;;;5000148;28;20045;-73
2024/01/05 04:02:49;;;;;;;7.10;2.95;;;10.10;96.70;;;;;;5023667;28;20147;-74
2024/01/05 04:05:18;;;;;;;7.82;2.67;;;10.00;96.70;;;;;;5007103;28;20616;-74
2024/01/05 04:07:46;;;;;;;7.03;2.38;;;9.90;96.70;;;;;;5017809;28;20104;-74
2024/01/05 04:10:15;;;;;;;6.32;2.42;;;9.90;96.70;;;;;;5006590;28;20061;-74
2024/01/05 04:12:43;;;;;;;7.72;2.45;;;9.80;96.70;;;;;;5023492;28;20050;-74
2024/01/05 04:15:12;;;;;;;5.32;2.55;;;9.70;96.70;;;;;;5023248;28;20563;-74
2024/01/05 04:17:41;;;;;;;5.90;2.67;;;9.70;96.70;;;;;;5020564;28;20038;-74
2024/01/05 04:20:11;;;;;;;9.43;2.88;;;9.70;96.70;;;;;;5023976;28;20069;-74
2024/01/05 04:22:39;;;;;;;6.63;2.13;;;9.70;96.70;;;;;;5023438;28;20854;-74
2024/01/05 04:25:10;;;;;;;8.43;2.70;;;9.70;96.70;;;;;;5023080;28;20225;-74
2024/01/05 04:28:02;;;;;;;6.95;2.25;;;9.70;96.70;;;;;;5016063;28;20477;-74
2024/01/05 04:31:19;;;;;;;6.35;2.45;;;9.80;96.70;;;;;;4995098;28;20779;-74
2024/01/05 04:37:08;;;;;;;7.78;3.22;;;9.80;96.70;;;;;;5021497;28;20107;-74
2024/01/05 04:39:36;;;;;;;8.32;3.10;;;9.80;96.70;;;;;;5023538;28;20065;-74
2024/01/05 04:42:09;;;;;;;8.98;3.38;;;9.80;96.70;;;;;;5039422;28;20049;-74
2024/01/05 04:45:31;;;;;;;7.47;3.00;;;9.80;96.70;;;;;;5026821;28;20079;-74
2024/01/05 04:48:13;;;;;;;6.60;2.72;;;9.80;96.70;;;;;;5026976;28;20585;-74
2024/01/05 04:50:53;;;;;;;11.02;2.67;;;9.80;96.70;;;;;;5024176;28;20648;-74
2024/01/05 04:53:24;;;;;;;5.80;2.63;;;9.70;96.70;;;;;;4994150;28;20056;-74
2024/01/05 04:55:52;;;;;;;5.10;2.40;;;9.60;96.70;;;;;;5001234;28;20053;-74
2024/01/05 04:58:27;;;;;;;8.43;2.33;;;9.60;96.70;;;;;;5018760;28;20101;-74
2024/01/05 05:00:55;;;;;;;4.72;2.22;;;9.60;96.70;;;;;;5003400;28;20049;-74
2024/01/05 05:03:28;;;;;;;5.72;2.50;;;9.50;96.70;;;;;;5026873;28;20502;-74
2024/01/05 05:06:01;;;;;;;7.38;2.28;;;9.50;96.70;;;;;;5026431;28;20574;-74
2024/01/05 05:08:30;;;;;;;13.48;2.60;;;9.40;96.70;;;;;;5025372;28;20060;-74
2024/01/05 05:10:58;;;;;;;6.70;2.33;;;9.50;96.70;;;;;;5013568;28;20502;-74
2024/01/05 05:13:27;;;;;;;5.70;2.45;;;9.50;96.70;;;;;;5005815;28;20053;-74
2024/01/05 05:15:55;;;;;;;6.50;2.22;;;9.50;96.70;;;;;;5026734;28;20049;-74
2024/01/05 05:18:27;;;;;;;8.63;2.78;;;9.50;96.70;;;;;;5026565;28;20084;-74
2024/01/05 05:20:55;;;;;;;6.68;2.20;;;9.50;96.70;;;;;;5008397;28;20652;-74
2024/01/05 05:24:06;;;;;;;3.83;1.73;;;9.50;96.70;;;;;;4980601;28;20053;-74
2024/01/05 05:26:35;;;;;;;7.88;2.20;;;9.40;96.70;;;;;;4981809;28;20054;-74
2024/01/05 05:29:04;;;;;;;8.80;2.22;;;9.40;96.70;;;;;;5008226;28;20045;-74
2024/01/05 05:31:32;;;;;;;5.22;2.22;;;9.40;96.70;;;;;;5022852;28;20544;-74
2024/01/05 05:34:01;;;;;;;4.88;1.40;;;9.30;96.70;;;;;;5026041;28;20069;-73
2024/01/05 05:36:30;;;;;;;4.68;1.90;;;9.10;96.70;;;;;;5027824;28;20519;-74
2024/01/05 05:39:05;;;;;;;9.15;2.53;;;9.20;96.70;;;;;;5009710;28;20644;-74
2024/01/05 05:41:35;;;;;;;5.13;2.10;;;9.20;96.70;;;;;;5022892;28;20140;-74
2024/01/05 05:44:05;;;;;;;6.68;2.22;;;9.20;96.70;;;;;;5010311;28;20850;-74
2024/01/05 05:46:34;;;;;;;7.88;2.97;;;9.20;96.70;;;;;;5025947;28;20054;-74
2024/01/05 05:49:04;;;;;;;6.32;1.98;;;9.20;96.70;;;;;;5006738;28;20596;-74
2024/01/05 05:51:38;;;;;;;4.43;2.13;;;9.20;96.70;;;;;;5007252;28;20057;-74
2024/01/05 05:54:07;;;;;;;5.88;2.10;;;9.30;96.70;;;;;;5025353;28;20096;-74
2024/01/05 05:56:39;;;;;;;6.85;2.30;;;9.30;96.70;;;;;;5025702;28;20073;-74
2024/01/05 05:59:11;;;;;;;7.38;2.58;;;9.30;96.70;;;;;;5026462;28;20053;-74
2024/01/05 06:01:42;;;;;;;8.95;3.45;;;9.40;96.70;;;;;;5006006;28;20438;-74
2024/01/05 06:04:13;;;;;;;15.27;4.47;;;9.40;96.70;;;;;;5009575;28;20045;-74
2024/01/05 06:06:43;;;;;;;11.43;5.28;;;9.40;96.70;;;;;;5025125;28;20057;-74
2024/01/05 06:09:14;;;;;;;13.55;5.22;;;9.40;96.70;;;;;;5025413;28;20129;-74
2024/01/05 06:11:45;;;;;;;11.77;5.32;;;9.40;96.70;;;;;;5025118;28;20115;-74
2024/01/05 06:14:13;;;;;;;10.40;4.95;;;9.40;96.70;;;;;;5024570;28;20514;-74
2024/01/05 06:16:44;;;;;;;9.48;4.30;;;9.50;96.70;;;;;;5008530;28;20100;-74
2024/01/05 06:19:20;;;;;;;11.32;3.85;;;9.40;96.70;;;;;;5040709;28;20411;-74
2024/01/05 06:21:59;;;;;;;10.68;3.80;;;9.40;96.70;;;;;;5004286;28;20586;-74
2024/01/05 06:28:34;;;;;;;5.43;2.50;;;9.40;96.70;;;;;;4958527;28;20086;-74
2024/01/05 06:31:02;;;;;;;;;;;9.60;96.70;;;;;;4950391;28;20051;-74
2024/01/05 06:33:56;;;;;;;9.07;3.22;;;9.60;96.70;;;;;;5025236;28;19925;-74
2024/01/05 06:36:31;;;;;;;5.03;2.33;;;9.60;96.70;;;;;;5020753;28;20045;-74
2024/01/05 06:39:00;;;;;;;9.63;1.85;;;9.60;96.70;;;;;;5019965;28;20049;-74
2024/01/05 06:41:33;;;;;;;5.88;1.67;;;9.70;96.70;;;;;;5018218;28;20080;-74
2024/01/05 06:44:31;;;;;;;5.80;2.00;;;9.70;96.70;;;;;;5002868;28;20058;-74
2024/01/05 06:47:49;;;;;;;4.80;1.90;;;9.60;96.70;;;;;;5024997;28;20532;-74
2024/01/05 06:50:02;;;;;;;6.40;1.85;;;9.70;96.70;;;;;;5014292;28;20065;-74
2024/01/05 06:52:33;;;;;;;8.10;1.90;;;9.70;96.70;;;;;;5024293;28;20053;-74
2024/01/05 06:55:03;;;;;;;7.38;1.98;;;9.70;96.70;;;;;;5006677;28;20048;-74
2024/01/05 06:57:36;;;;;;;8.65;2.28;;;9.80;96.70;;;;;;5006255;28;20538;-74
2024/01/05 07:00:18;;;;;;;9.10;2.10;;;9.80;96.70;;;;;;5018491;28;20857;-74
2024/01/05 07:02:57;;;;;;;;;;;;;;;;;;;;;
2024/01/05 07:05:31;;;;;;;9.95;2.78;;;9.90;96.70;;;;;;5016045;28;20057;-73
2024/01/05 07:08:15;;;;;;;8.30;2.55;;;9.90;96.70;;;;;;5009982;28;20072;-74
2024/01/05 07:10:54;;;;;;;10.35;2.88;;;10.00;96.70;;;;;;5023232;28;20057;-73
2024/01/05 07:13:24;;;;;;;6.03;2.72;;;10.00;96.70;;;;;;5024428;28;20115;-73
2024/01/05 07:15:55;;;;;;;10.23;2.65;;;10.10;96.70;;;;;;5007944;28;20132;-73
2024/01/05 07:18:23;;;;;;;11.52;3.10;;;10.20;96.70;;;;;;5024255;28;20067;-74
2024/01/05 07:21:19;;;;;;;7.75;2.40;;;10.10;96.70;;;;;;5024636;28;20388;-74
2024/01/05 07:23:49;;;;;;;9.52;2.88;;;10.20;96.70;;;;;;5001584;28;20119;-74
2024/01/05 07:26:23;;;;;;;6.35;2.47;;;10.20;96.70;;;;;;5024029;28;20254;-74
2024/01/05 07:28:52;;;;;;;5.20;2.13;;;10.20;96.70;;;;;;5008256;28;20067;-74
2024/01/05 07:31:25;;;;;;;6.30;2.08;;;10.30;96.70;;;;;;5017836;28;20051;-74
2024/01/05 07:33:57;;;;;;;10.30;2.05;;;10.30;96.70;;;;;;5018983;28;20433;-74
2024/01/05 07:36:30;;;;;;;5.07;1.90;;;10.40;96.70;;;;;;5024585;28;20399;-74
2024/01/05 07:38:59;;;;;;;9.55;2.22;;;10.50;96.70;;;;;;5007223;28;20046;-74
2024/01/05 07:41:28;;;;;;;7.10;2.30;;;10.50;96.70;;;;;;5040100;28;20060;-75
2024/01/05 07:43:59;;;;;;;7.63;2.50;;;10.60;96.70;;;;;;5007040;28;20082;-75
2024/01/05 07:46:40;;;;;;;7.43;2.22;;;10.60;96.70;;;;;;5023216;28;20064;-75
2024/01/05 07:49:28;;;;;;;6.63;2.58;;;10.60;96.70;;;;;;5025066;28;20398;-74
2024/01/05 07:51:59;;;;;;;5.95;2.13;;;10.70;96.70;;;;;;5023207;28;20144;-74
2024/01/05 07:54:28;;;;;;;9.65;2.50;;;10.70;96.70;;;;;;5024360;28;20057;-74
2024/01/05 07:56:58;;;;;;;10.13;2.03;;;10.80;96.70;;;;;;5021928;28;20061;-74
2024/01/05 07:59:37;;;;;;;15.27;3.53;;;10.90;96.70;;;;;;5022971;28;20147;-74
2024/01/05 08:02:08;;;;;;;7.97;2.40;;;10.90;96.70;;;;;;5022731;28;20053;-75
2024/01/05 08:04:39;;;;;;;6.85;2.00;;;11.00;96.70;;;;;;5023543;28;20060;-75
2024/01/05 08:07:07;;;;;;;6.30;1.83;;;11.00;96.70;;;;;;5023368;28;20195;-75
2024/01/05 08:09:36;;;;;;;7.95;2.00;;;11.00;96.70;;;;;;5023484;28;20506;-75
2024/01/05 08:12:05;;;;;;;5.93;1.75;;;11.10;96.70;;;;;;5023786;28;20143;-75
2024/01/05 08:14:38;;;;;;;11.52;2.60;;;11.10;96.70;;;;;;5008382;28;20049;-75
2024/01/05 08:17:09;;;;;;;6.88;2.13;;;11.20;96.70;;;;;;5023462;28;20099;-75
2024/01/05 08:19:38;;;;;;;7.50;2.42;;;11.20;96.70;;;;;;5027401;28;20072;-77
2024/01/05 08:26:25;;;;;;;7.57;2.33;;;11.30;96.70;;;;;;4970215;28;20936;-77
2024/01/05 08:28:53;;;;;;;8.50;2.58;;;11.30;96.70;;;;;;4954102;28;20050;-75
2024/01/05 08:31:22;;;;;;;7.82;2.25;;;11.40;96.70;;;;;;4954513;28;20051;-75
2024/01/05 08:33:52;;;;;;;12.40;3.10;;;11.40;96.70;;;;;;4953345;28;20058;-75
2024/01/05 08:36:48;;;;;;;8.48;2.95;;;11.40;96.70;;;;;;4969511;28;20153;-75
2024/01/05 08:39:17;;;;;;;6.65;2.40;;;11.40;96.70;;;;;;4968389;28;20050;-75
2024/01/05 08:41:46;;;;;;;6.32;2.83;;;11.40;96.70;;;;;;4968160;28;20053;-74
2024/01/05 08:44:14;;;;;;;9.60;3.42;;;11.50;96.70;;;;;;4968596;28;20080;-75
2024/01/05 08:46:45;;;;;;;6.72;2.70;;;11.50;96.70;;;;;;4980300;28;20038;-74
2024/01/05 08:49:15;;;;;;;10.57;2.83;;;11.50;96.70;;;;;;4952758;28;20050;-74
2024/01/05 08:51:44;;;;;;;9.32;3.55;;;11.50;96.70;;;;;;4953680;28;20062;-74
2024/01/05 08:54:13;;;;;;;12.40;3.70;;;11.50;96.70;;;;;;4969756;28;20052;-74
2024/01/05 08:56:42;;;;;;;10.80;4.30;;;11.50;96.70;;;;;;4969523;28;20502;-74
2024/01/05 08:59:10;;;;;;;9.80;3.97;;;11.60;96.70;;;;;;4953640;28;20092;-73
2024/01/05 09:01:39;;;;;;;11.10;4.47;;;11.60;96.70;;;;;;4965001;28;20054;-75
2024/01/05 09:04:10;;;;;;;13.38;5.00;;;11.60;96.70;;;;;;5026868;28;20104;-74
2024/01/05 09:06:42;;;;;;;12.35;4.47;;;11.60;96.70;;;;;;5025647;28;20053;-74
2024/01/05 09:09:14;;;;;;;11.38;4.95;;;11.70;96.70;;;;;;5009443;28;20521;-74
2024/01/05 09:11:43;;;;;;;14.95;5.45;;;11.70;96.70;;;;;;5025989;28;20056;-75
2024/01/05 09:14:12;;;;;;;14.57;5.75;;;11.70;96.70;;;;;;5019690;28;20328;-74
2024/01/05 09:16:42;;;;;;;16.80;5.45;;;11.80;96.70;;;;;;5026693;28;20053;-75
2024/01/05 09:19:14;;;;;;;14.77;5.30;;;11.80;96.70;;;;;;5024388;28;20041;-75
2024/01/05 09:21:45;;;;;;;14.48;5.70;;;11.80;96.70;;;;;;5026973;28;20616;-75
2024/01/05 09:24:13;;;;;;;11.82;5.00;;;11.90;96.70;;;;;;5010314;28;20080;-75
2024/01/05 09:26:43;;;;;;;11.32;4.97;;;11.90;96.70;;;;;;5009854;28;20046;-74
2024/01/05 09:29:12;;;;;;;12.93;5.10;;;11.90;96.70;;;;;;5026157;28;20057;-75
2024/01/05 09:31:48;;;;;;;13.48;4.57;;;12.00;96.70;;;;;;5025715;28;20056;-75
2024/01/05 09:34:20;;;;;;;14.50;5.57;;;12.00;96.70;;;;;;5023684;28;20068;-75
2024/01/05 09:36:51;;;;;;;12.10;5.15;;;12.00;96.70;;;;;;5026339;28;20059;-76
2024/01/05 09:40:52;;;;;;;14.32;4.88;;;12.00;96.70;;;;;;5027106;28;20048;-76
2024/01/05 09:43:23;;;;;;;16.52;4.90;;;12.10;96.70;;;;;;5024420;28;20041;-75
2024/01/05 09:45:53;;;;;;;13.52;4.65;;;12.10;96.70;;;;;;5005543;28;20056;-75
2024/01/05 09:48:40;;;;;;;12.75;5.47;;;12.10;96.70;;;;;;5025361;28;20050;-75
2024/01/05 09:51:19;;;;;;;13.73;4.85;;;12.20;96.70;;;;;;5020180;28;20057;-75
2024/01/05 09:54:02;;;;;;;12.93;5.05;;;12.20;96.70;;;;;;5026177;28;20045;-75
2024/01/05 09:57:15;;;;;;;13.07;4.70;;;12.20;96.70;;;;;;4956151;28;20149;-75
2024/01/05 10:03:21;;;;;;;13.55;5.03;;;12.40;96.70;;;;;;4944655;28;20068;-75
2024/01/05 10:05:53;;;;;;;12.93;4.80;;;12.50;96.70;;;;;;4930515;29;20061;-75
2024/01/05 10:08:50;;;;;;;11.32;4.50;;;12.50;96.70;;;;;;4946331;28;20074;-75
2024/01/05 10:11:51;;;;;;;12.05;4.97;;;12.60;96.70;;;;;;4929708;29;20512;-75
2024/01/05 10:14:35;;;;;;;12.80;4.57;;;12.80;96.70;;;;;;4929160;29;20088;-75
2024/01/05 10:17:16;;;;;;;12.48;4.60;;;12.80;96.70;;;;;;4929199;28;20058;-75
2024/01/05 10:30:27;;;;;;;12.18;4.88;;;13.00;96.70;;;;;;5061893;28;20756;-75
2024/01/05 10:33:03;;;;;;;15.18;5.38;;;13.10;96.70;;;;;;5029835;28;20053;-75
2024/01/05 10:35:36;;;;;;;10.25;5.25;;;13.10;96.70;;;;;;5020047;28;20064;-75
2024/01/05 10:38:07;;;;;;;12.25;5.35;;;13.10;96.70;;;;;;5032166;28;20068;-75
2024/01/05 10:40:38;;;;;;;15.32;6.55;;;13.10;96.70;;;;;;5031275;28;20505;-75
2024/01/05 10:43:11;;;;;;;12.88;5.70;;;13.10;96.70;;;;;;5037520;28;20088;-75
2024/01/05 10:45:42;;;;;;;13.80;5.72;;;13.10;96.70;;;;;;5031960;28;20137;-76
2024/01/05 10:48:16;;;;;;;15.30;6.00;;;13.10;96.70;;;;;;5032325;28;20424;-75
2024/01/05 10:55:10;;;;;;;15.43;6.32;;;13.00;96.70;;;;;;4963722;28;20110;-76
2024/01/05 10:57:43;;;;;;;15.68;6.40;;;13.00;96.70;;;;;;4948057;28;20157;-76
2024/01/05 11:00:14;;;;;;;16.23;6.15;;;12.90;96.70;;;;;;4945366;28;20580;-75
2024/01/05 11:06:01;;;;;;;12.77;6.45;;;12.90;96.70;;;;;;4938154;28;20066;-75
2024/01/05 11:09:23;;;;;;;17.27;6.50;;;12.90;96.70;;;;;;4925950;29;20059;-75
2024/01/05 11:15:39;;;;;;;15.48;8.98;;;12.90;96.70;;;;;;4909948;29;20568;-75
2024/01/05 11:18:39;;;;;;;18.08;8.65;;;12.90;96.70;;;;;;4909170;29;20197;-75
2024/01/05 11:21:14;;;;;;;13.82;8.73;;;12.90;96.70;;;;;;4942196;28;20059;-75
2024/01/05 11:23:44;;;;;;;16.33;8.23;;;12.90;96.70;;;;;;4939105;28;20428;-75
2024/01/05 11:26:33;;;;;;;15.32;8.63;;;12.90;96.70;;;;;;4931397;28;20566;-75
2024/01/05 11:29:02;;;;;;;19.73;9.05;;;12.90;96.70;;;;;;4936130;28;20065;-75
2024/01/05 11:31:52;;;;;;;16.02;8.13;;;12.90;96.70;;;;;;5006098;28;20061;-75
2024/01/05 11:34:49;;;;;;;16.63;8.55;;;13.00;96.70;;;;;;4978690;28;20141;-75
2024/01/05 11:37:28;;;;;;;16.75;7.05;;;13.00;96.70;;;;;;5034792;28;20605;-76
2024/01/05 11:39:57;;;;;;;15.43;6.57;;;13.10;96.70;;;;;;5017054;28;20430;-76
2024/01/05 11:42:35;;;;;;;12.45;5.90;;;13.10;96.70;;;;;;5028975;28;20537;-76
2024/01/05 11:45:09;;;;;;;12.88;6.90;;;13.10;96.70;;;;;;5040906;28;20091;-76
2024/01/05 11:47:45;;;;;;;21.73;7.28;;;13.20;96.70;;;;;;5034106;28;20052;-76
2024/01/05 11:50:28;;;;;;;14.90;6.30;;;13.20;96.70;;;;;;5025846;28;20056;-76
2024/01/05 11:53:08;;;;;;;12.35;7.13;;;13.30;96.70;;;;;;5039343;28;20060;-76
2024/01/05 11:55:40;;;;;;;13.20;6.82;;;13.30;96.70;;;;;;5040026;28;20138;-76
2024/01/05 11:58:10;;;;;;;16.67;8.70;;;13.30;96.70;;;;;;5038121;28;20057;-77
2024/01/05 12:00:44;;;;;;;14.00;7.50;;;13.30;96.70;;;;;;5038945;28;20111;-77
2024/01/05 12:03:14;;;;;;;17.00;7.30;;;13.30;96.70;;;;;;5031014;28;20053;-76
2024/01/05 12:05:44;;;;;;;16.75;6.78;;;13.30;96.70;;;;;;5035130;28;20099;-76
2024/01/05 12:08:18;;;;;;;16.55;7.72;;;13.20;96.70;;;;;;5038370;28;20059;-77
2024/01/05 12:10:56;;;;;;;13.93;6.75;;;13.20;96.70;;;;;;5025633;28;20047;-77
2024/01/05 12:13:26;;;;;;;16.73;6.55;;;13.10;96.70;;;;;;5018883;28;20784;-76
2024/01/05 12:15:55;;;;;;;14.95;7.97;;;13.10;96.70;;;;;;5026220;28;20061;-76
2024/01/05 12:18:30;;;;;;;14.77;8.38;;;13.10;96.70;;;;;;5034981;28;20057;-76
2024/01/05 12:21:09;;;;;;;16.33;8.38;;;13.10;96.70;;;;;;5019776;28;20060;-76
2024/01/05 12:23:38;;;;;;;21.08;9.07;;;13.00;96.70;;;;;;5027122;28;20458;-76
2024/01/05 12:26:08;;;;;;;14.57;8.50;;;13.00;96.70;;;;;;5022998;28;20083;-76
2024/01/05 12:28:38;;;;;;;15.85;9.00;;;13.00;96.70;;;;;;5017047;28;20052;-76
2024/01/05 12:31:07;;;;;;;13.63;7.32;;;12.90;96.70;;;;;;5022965;28;20057;-76
2024/01/05 12:33:37;;;;;;;13.88;6.07;;;12.90;96.70;;;;;;5036434;28;20067;-76
2024/01/05 12:36:12;;;;;;;12.25;6.65;;;12.90;96.70;;;;;;5035881;28;20059;-76
2024/01/05 12:38:41;;;;;;;9.40;5.82;;;12.90;96.70;;;;;;5026445;28;20053;-76
2024/01/05 12:41:14;;;;;;;13.88;7.65;;;12.90;96.70;;;;;;5011946;28;20134;-76
2024/01/05 12:43:51;;;;;;;11.25;6.25;;;12.90;96.70;;;;;;5034062;28;20057;-76
2024/01/05 12:46:22;;;;;;;16.50;8.80;;;12.90;96.70;;;;;;5038227;28;20104;-76
2024/01/05 12:48:51;;;;;;;14.50;7.13;;;12.90;96.70;;;;;;5025725;28;20990;-76
2024/01/05 12:51:22;;;;;;;14.10;7.20;;;12.90;96.70;;;;;;5024412;28;20080;-75
2024/01/05 12:54:11;;;;;;;13.93;7.57;;;12.90;96.70;;;;;;5037138;28;20061;-76
2024/01/05 12:56:44;;;;;;;16.77;7.53;;;12.90;96.70;;;;;;5022925;28;20399;-75
2024/01/05 12:59:24;;;;;;;11.48;7.22;;;12.80;96.70;;;;;;5027538;28;20053;-76
2024/01/05 13:01:59;;;;;;;16.75;8.73;;;12.80;96.70;;;;;;5026820;28;20143;-75
2024/01/05 13:04:29;;;;;;;16.77;8.80;;;12.70;96.70;;;;;;5037369;28;20060;-75
2024/01/05 13:07:31;;;;;;;16.13;8.60;;;12.70;96.70;;;;;;5034867;28;20064;-76
2024/01/05 13:10:00;;;;;;;16.20;7.68;;;12.70;96.70;;;;;;5034254;28;20080;-78
2024/01/05 13:12:29;;;;;;;16.08;7.93;;;12.70;96.70;;;;;;5021383;28;20052;-77
2024/01/05 13:14:57;;;;;;;17.85;8.07;;;12.70;96.70;;;;;;5039267;28;20064;-78
2024/01/05 13:17:26;;;;;;;15.40;8.27;;;12.70;96.70;;;;;;5037687;28;20150;-77
2024/01/05 13:19:55;;;;;;;14.30;7.90;;;12.70;96.70;;;;;;5045292;28;20164;-75
2024/01/05 13:22:38;;;;;;;15.48;8.40;;;12.70;96.70;;;;;;5030185;28;20056;-75
2024/01/05 13:25:10;;;;;;;15.52;7.50;;;12.70;96.70;;;;;;5029562;28;20143;-76
2024/01/05 13:28:01;;;;;;;18.90;8.32;;;12.70;96.70;;;;;;5023687;28;20433;-76
2024/01/05 13:30:48;;;;;;;17.73;7.93;;;12.60;96.70;;;;;;5023978;28;20188;-76
2024/01/05 13:33:16;;;;;;;15.10;8.05;;;12.70;96.70;;;;;;5037223;28;20143;-76
2024/01/05 13:35:47;;;;;;;17.27;9.13;;;12.70;96.70;;;;;;5029706;28;20064;-75
2024/01/05 13:38:18;;;;;;;13.88;8.45;;;12.60;96.70;;;;;;5029109;28;20155;-76
2024/01/05 13:40:46;;;;;;;17.20;10.52;;;12.60;96.70;;;;;;5029591;28;20074;-76
2024/01/05 13:43:18;;;;;;;17.65;9.38;;;12.60;96.70;;;;;;5013060;28;20048;-75
2024/01/05 13:45:49;;;;;;;22.63;12.77;;;12.70;96.70;;;;;;5011696;28;20454;-75
2024/01/05 13:48:18;;;;;;;20.08;10.73;;;12.70;96.70;;;;;;5012987;28;20087;-76
2024/01/05 13:50:55;;;;;;;16.38;10.02;;;12.70;96.70;;;;;;5029443;28;20084;-76
2024/01/05 13:53:25;;;;;;;16.95;8.88;;;12.70;96.70;;;;;;5013086;28;20103;-76
2024/01/05 13:55:54;;;;;;;17.83;8.55;;;12.70;96.70;;;;;;5012003;28;20172;-76
2024/01/05 13:58:22;;;;;;;17.88;9.25;;;12.70;96.70;;;;;;5013178;28;20061;-76
2024/01/05 14:01:29;;;;;;;15.05;9.02;;;12.80;96.70;;;;;;5034139;28;20150;-76
2024/01/05 14:03:58;;;;;;;14.63;8.43;;;12.70;96.70;;;;;;5004969;28;20072;-76
2024/01/05 14:06:29;;;;;;;17.42;7.72;;;12.70;96.70;;;;;;5018297;28;20514;-76
2024/01/05 14:09:09;;;;;;;13.70;6.90;;;12.70;96.70;;;;;;5023407;28;20057;-76
2024/01/05 14:11:37;;;;;;;15.85;8.00;;;12.70;96.70;;;;;;5011681;28;20049;-76
2024/01/05 14:14:06;;;;;;;11.10;7.68;;;12.70;96.70;;;;;;5011184;28;20418;-75
2024/01/05 14:16:35;;;;;;;14.02;7.90;;;12.70;96.70;;;;;;5012631;28;20057;-75